sensor_id;sensor_type;location;lat;lon;timestamp;pressure;altitude;pressure_sealevel;temperature;humidity
49216;BME280;45943;53.148;8.204;2023-06-14T00:01:45;101804.75;;;22.47;52.88
49216;BME280;45943;53.148;8.204;2023-06-14T00:04:14;101803.41;;;22.43;53.38
49216;BME280;45943;53.148;8.204;2023-06-14T00:06:42;101797.44;;;22.31;53.81
49216;BME280;45943;53.148;8.204;2023-06-14T00:09:11;101795.44;;;22.25;54.55
49216;BME280;45943;53.148;8.204;2023-06-14T00:11:40;101802.66;;;22.18;55.10
49216;BME280;45943;53.148;8.204;2023-06-14T00:14:07;101812.34;;;22.21;55.35
49216;BME280;45943;53.148;8.204;2023-06-14T00:16:33;101808.97;;;22.11;55.99
49216;BME280;45943;53.148;8.204;2023-06-14T00:19:01;101807.81;;;21.97;57.12
49216;BME280;45943;53.148;8.204;2023-06-14T00:21:30;101815.16;;;21.96;58.11
49216;BME280;45943;53.148;8.204;2023-06-14T00:23:57;101805.09;;;21.89;59.18
49216;BME280;45943;53.148;8.204;2023-06-14T00:26:24;101799.63;;;21.89;59.43
49216;BME280;45943;53.148;8.204;2023-06-14T00:28:52;101807.97;;;21.95;59.64
49216;BME280;45943;53.148;8.204;2023-06-14T00:31:18;101810.91;;;21.94;60.16
49216;BME280;45943;53.148;8.204;2023-06-14T00:33:44;101817.72;;;21.90;60.96
49216;BME280;45943;53.148;8.204;2023-06-14T00:36:10;101818.75;;;21.89;61.40
49216;BME280;45943;53.148;8.204;2023-06-14T00:38:36;101820.78;;;21.95;61.60
49216;BME280;45943;53.148;8.204;2023-06-14T00:41:02;101814.47;;;21.94;62.33
49216;BME280;45943;53.148;8.204;2023-06-14T00:43:29;101821.81;;;21.94;62.48
49216;BME280;45943;53.148;8.204;2023-06-14T00:45:55;101821.28;;;21.90;63.09
49216;BME280;45943;53.148;8.204;2023-06-14T00:48:21;101816.53;;;21.84;63.83
49216;BME280;45943;53.148;8.204;2023-06-14T00:50:49;101812.78;;;21.77;64.76
49216;BME280;45943;53.148;8.204;2023-06-14T00:53:16;101820.31;;;21.75;65.60
49216;BME280;45943;53.148;8.204;2023-06-14T00:55:50;101817.22;;;21.70;66.86
49216;BME280;45943;53.148;8.204;2023-06-14T00:58:16;101815.22;;;21.64;67.97
49216;BME280;45943;53.148;8.204;2023-06-14T01:00:42;101809.75;;;21.47;69.66
49216;BME280;45943;53.148;8.204;2023-06-14T01:03:09;101816.41;;;21.37;71.02
49216;BME280;45943;53.148;8.204;2023-06-14T01:05:38;101813.84;;;21.35;71.88
49216;BME280;45943;53.148;8.204;2023-06-14T01:08:23;101821.53;;;21.40;72.29
49216;BME280;45943;53.148;8.204;2023-06-14T01:11:00;101817.25;;;21.37;73.54
49216;BME280;45943;53.148;8.204;2023-06-14T01:13:33;101818.59;;;21.33;74.35
49216;BME280;45943;53.148;8.204;2023-06-14T01:16:01;101817.94;;;21.31;74.68
49216;BME280;45943;53.148;8.204;2023-06-14T01:18:28;101818.28;;;21.28;75.67
49216;BME280;45943;53.148;8.204;2023-06-14T01:20:55;101825.41;;;21.21;77.49
49216;BME280;45943;53.148;8.204;2023-06-14T01:23:22;101818.75;;;21.15;78.38
49216;BME280;45943;53.148;8.204;2023-06-14T01:25:49;101820.63;;;21.15;78.70
49216;BME280;45943;53.148;8.204;2023-06-14T01:28:18;101819.06;;;21.12;80.25
49216;BME280;45943;53.148;8.204;2023-06-14T01:30:47;101819.63;;;21.16;80.52
49216;BME280;45943;53.148;8.204;2023-06-14T01:33:21;101823.19;;;21.16;80.76
49216;BME280;45943;53.148;8.204;2023-06-14T01:35:52;101825.06;;;21.16;81.33
49216;BME280;45943;53.148;8.204;2023-06-14T01:38:24;101823.50;;;21.13;82.68
49216;BME280;45943;53.148;8.204;2023-06-14T01:40:51;101825.38;;;21.13;82.37
49216;BME280;45943;53.148;8.204;2023-06-14T01:43:20;101821.13;;;21.10;83.46
49216;BME280;45943;53.148;8.204;2023-06-14T01:45:47;101833.91;;;21.10;84.02
49216;BME280;45943;53.148;8.204;2023-06-14T01:48:17;101828.97;;;21.05;84.94
49216;BME280;45943;53.148;8.204;2023-06-14T01:50:44;101825.19;;;20.98;86.33
49216;BME280;45943;53.148;8.204;2023-06-14T01:53:10;101831.69;;;20.97;87.23
49216;BME280;45943;53.148;8.204;2023-06-14T01:55:37;101829.28;;;20.94;88.85
49216;BME280;45943;53.148;8.204;2023-06-14T01:58:03;101825.56;;;20.95;88.85
49216;BME280;45943;53.148;8.204;2023-06-14T02:00:30;101835.44;;;20.96;89.09
49216;BME280;45943;53.148;8.204;2023-06-14T02:02:56;101839.34;;;21.02;88.05
49216;BME280;45943;53.148;8.204;2023-06-14T02:05:22;101834.41;;;20.97;88.92
49216;BME280;45943;53.148;8.204;2023-06-14T02:07:49;101837.31;;;20.96;89.55
49216;BME280;45943;53.148;8.204;2023-06-14T02:10:16;101829.63;;;20.91;90.73
49216;BME280;45943;53.148;8.204;2023-06-14T02:12:43;101834.19;;;20.82;92.28
49216;BME280;45943;53.148;8.204;2023-06-14T02:15:09;101828.25;;;20.87;91.77
49216;BME280;45943;53.148;8.204;2023-06-14T02:17:45;101836.09;;;20.90;90.92
49216;BME280;45943;53.148;8.204;2023-06-14T02:20:15;101842.91;;;20.86;92.16
49216;BME280;45943;53.148;8.204;2023-06-14T02:22:41;101841.34;;;20.83;93.09
49216;BME280;45943;53.148;8.204;2023-06-14T02:25:07;101845.09;;;20.82;93.57
49216;BME280;45943;53.148;8.204;2023-06-14T02:27:34;101842.88;;;20.78;94.40
49216;BME280;45943;53.148;8.204;2023-06-14T02:30:00;101849.88;;;20.80;94.45
49216;BME280;45943;53.148;8.204;2023-06-14T02:32:26;101846.09;;;20.73;96.18
49216;BME280;45943;53.148;8.204;2023-06-14T02:34:56;101843.06;;;20.76;95.82
49216;BME280;45943;53.148;8.204;2023-06-14T02:37:22;101839.63;;;20.74;97.06
49216;BME280;45943;53.148;8.204;2023-06-14T02:39:48;101847.78;;;20.74;96.77
49216;BME280;45943;53.148;8.204;2023-06-14T02:42:14;101845.78;;;20.76;96.67
49216;BME280;45943;53.148;8.204;2023-06-14T02:44:40;101847.81;;;20.82;95.71
49216;BME280;45943;53.148;8.204;2023-06-14T02:47:07;101842.03;;;20.77;96.54
49216;BME280;45943;53.148;8.204;2023-06-14T02:49:33;101845.78;;;20.76;96.75
49216;BME280;45943;53.148;8.204;2023-06-14T02:51:59;101846.47;;;20.78;96.63
49216;BME280;45943;53.148;8.204;2023-06-14T02:54:25;101845.94;;;20.75;97.58
49216;BME280;45943;53.148;8.204;2023-06-14T02:56:51;101850.69;;;20.73;98.43
49216;BME280;45943;53.148;8.204;2023-06-14T02:59:17;101857.16;;;20.72;98.81
49216;BME280;45943;53.148;8.204;2023-06-14T03:01:43;101864.03;;;20.76;98.29
49216;BME280;45943;53.148;8.204;2023-06-14T03:04:09;101873.34;;;20.73;98.24
49216;BME280;45943;53.148;8.204;2023-06-14T03:06:35;101867.41;;;20.70;99.36
49216;BME280;45943;53.148;8.204;2023-06-14T03:09:02;101870.47;;;20.67;99.93
49216;BME280;45943;53.148;8.204;2023-06-14T03:11:34;101878.25;;;20.61;100.00
49216;BME280;45943;53.148;8.204;2023-06-14T03:14:01;101883.16;;;20.50;100.00
49216;BME280;45943;53.148;8.204;2023-06-14T03:16:29;101883.31;;;20.48;100.00
49216;BME280;45943;53.148;8.204;2023-06-14T03:18:57;101884.19;;;20.49;100.00
49216;BME280;45943;53.148;8.204;2023-06-14T03:21:23;101884.34;;;20.47;100.00
49216;BME280;45943;53.148;8.204;2023-06-14T03:23:49;101887.84;;;20.40;100.00
49216;BME280;45943;53.148;8.204;2023-06-14T03:26:15;101895.00;;;20.41;100.00
49216;BME280;45943;53.148;8.204;2023-06-14T03:28:43;101890.81;;;20.46;100.00
49216;BME280;45943;53.148;8.204;2023-06-14T03:31:11;101891.84;;;20.45;100.00
49216;BME280;45943;53.148;8.204;2023-06-14T03:33:38;101902.56;;;20.47;100.00
49216;BME280;45943;53.148;8.204;2023-06-14T03:36:04;101903.16;;;20.41;100.00
49216;BME280;45943;53.148;8.204;2023-06-14T03:38:32;101904.88;;;20.42;100.00
49216;BME280;45943;53.148;8.204;2023-06-14T03:40:58;101897.03;;;20.39;100.00
49216;BME280;45943;53.148;8.204;2023-06-14T03:43:24;101909.66;;;20.40;100.00
49216;BME280;45943;53.148;8.204;2023-06-14T03:45:50;101904.28;;;20.48;100.00
49216;BME280;45943;53.148;8.204;2023-06-14T03:48:16;101907.00;;;20.48;100.00
49216;BME280;45943;53.148;8.204;2023-06-14T03:50:42;101907.31;;;20.45;100.00
49216;BME280;45943;53.148;8.204;2023-06-14T03:53:10;101917.66;;;20.41;100.00
49216;BME280;45943;53.148;8.204;2023-06-14T03:55:36;101911.00;;;20.36;100.00
49216;BME280;45943;53.148;8.204;2023-06-14T03:58:03;101917.31;;;20.36;100.00
49216;BME280;45943;53.148;8.204;2023-06-14T04:00:29;101924.13;;;20.40;100.00
49216;BME280;45943;53.148;8.204;2023-06-14T04:02:55;101923.81;;;20.43;100.00
49216;BME280;45943;53.148;8.204;2023-06-14T04:05:21;101919.94;;;20.46;100.00
49216;BME280;45943;53.148;8.204;2023-06-14T04:07:48;101918.50;;;20.42;100.00
49216;BME280;45943;53.148;8.204;2023-06-14T04:10:16;101930.44;;;20.41;100.00
49216;BME280;45943;53.148;8.204;2023-06-14T04:12:42;101930.06;;;20.36;100.00
49216;BME280;45943;53.148;8.204;2023-06-14T04:15:08;101932.25;;;20.32;100.00
49216;BME280;45943;53.148;8.204;2023-06-14T04:17:37;101937.59;;;20.42;100.00
49216;BME280;45943;53.148;8.204;2023-06-14T04:20:03;101930.50;;;20.49;100.00
49216;BME280;45943;53.148;8.204;2023-06-14T04:22:31;101926.97;;;20.56;100.00
49216;BME280;45943;53.148;8.204;2023-06-14T04:24:59;101929.72;;;20.56;100.00
49216;BME280;45943;53.148;8.204;2023-06-14T04:27:28;101930.34;;;20.50;100.00
49216;BME280;45943;53.148;8.204;2023-06-14T04:29:56;101932.97;;;20.42;100.00
49216;BME280;45943;53.148;8.204;2023-06-14T04:32:23;101943.88;;;20.42;100.00
49216;BME280;45943;53.148;8.204;2023-06-14T04:34:55;101946.25;;;20.37;100.00
49216;BME280;45943;53.148;8.204;2023-06-14T04:37:21;101943.47;;;20.47;100.00
49216;BME280;45943;53.148;8.204;2023-06-14T04:39:48;101943.88;;;20.42;100.00
49216;BME280;45943;53.148;8.204;2023-06-14T04:42:14;101938.34;;;20.52;100.00
49216;BME280;45943;53.148;8.204;2023-06-14T04:44:42;101941.78;;;20.54;100.00
49216;BME280;45943;53.148;8.204;2023-06-14T04:47:09;101933.47;;;20.63;100.00
49216;BME280;45943;53.148;8.204;2023-06-14T04:49:36;101941.53;;;20.73;100.00
49216;BME280;45943;53.148;8.204;2023-06-14T04:52:03;101947.59;;;20.59;100.00
49216;BME280;45943;53.148;8.204;2023-06-14T04:54:29;101949.81;;;20.63;100.00
49216;BME280;45943;53.148;8.204;2023-06-14T04:56:57;101950.16;;;20.60;100.00
49216;BME280;45943;53.148;8.204;2023-06-14T04:59:23;101946.59;;;20.60;100.00
49216;BME280;45943;53.148;8.204;2023-06-14T05:01:49;101953.22;;;20.57;100.00
49216;BME280;45943;53.148;8.204;2023-06-14T05:04:15;101955.41;;;20.54;100.00
49216;BME280;45943;53.148;8.204;2023-06-14T05:06:42;101952.88;;;20.60;100.00
49216;BME280;45943;53.148;8.204;2023-06-14T05:09:10;101943.63;;;20.45;100.00
49216;BME280;45943;53.148;8.204;2023-06-14T05:11:37;101964.00;;;20.67;100.00
49216;BME280;45943;53.148;8.204;2023-06-14T05:14:03;101968.91;;;20.63;100.00
49216;BME280;45943;53.148;8.204;2023-06-14T05:16:29;101960.47;;;20.75;100.00
49216;BME280;45943;53.148;8.204;2023-06-14T05:18:55;101966.34;;;20.62;100.00
49216;BME280;45943;53.148;8.204;2023-06-14T05:21:22;101970.31;;;20.68;100.00
49216;BME280;45943;53.148;8.204;2023-06-14T05:23:48;101963.72;;;20.78;100.00
49216;BME280;45943;53.148;8.204;2023-06-14T05:26:14;101957.94;;;20.81;100.00
49216;BME280;45943;53.148;8.204;2023-06-14T05:28:40;101975.81;;;20.76;100.00
49216;BME280;45943;53.148;8.204;2023-06-14T05:31:06;101971.09;;;20.86;100.00
49216;BME280;45943;53.148;8.204;2023-06-14T05:33:32;101963.03;;;21.18;100.00
49216;BME280;45943;53.148;8.204;2023-06-14T05:35:58;101975.44;;;21.47;100.00
49216;BME280;45943;53.148;8.204;2023-06-14T05:38:24;101983.81;;;21.70;100.00
49216;BME280;45943;53.148;8.204;2023-06-14T05:40:51;101974.28;;;21.82;100.00
49216;BME280;45943;53.148;8.204;2023-06-14T05:43:17;101972.94;;;21.94;100.00
49216;BME280;45943;53.148;8.204;2023-06-14T05:45:43;101972.75;;;22.04;100.00
49216;BME280;45943;53.148;8.204;2023-06-14T05:48:09;101973.13;;;22.17;100.00
49216;BME280;45943;53.148;8.204;2023-06-14T05:50:35;101976.53;;;22.11;100.00
49216;BME280;45943;53.148;8.204;2023-06-14T05:53:01;101975.69;;;22.11;100.00
49216;BME280;45943;53.148;8.204;2023-06-14T05:55:27;101986.25;;;22.22;100.00
49216;BME280;45943;53.148;8.204;2023-06-14T05:57:53;101979.44;;;22.10;100.00
49216;BME280;45943;53.148;8.204;2023-06-14T06:00:19;101981.84;;;22.13;100.00
49216;BME280;45943;53.148;8.204;2023-06-14T06:02:45;101977.88;;;21.91;100.00
49216;BME280;45943;53.148;8.204;2023-06-14T06:05:13;101987.78;;;21.84;100.00
49216;BME280;45943;53.148;8.204;2023-06-14T06:07:41;101987.63;;;21.85;100.00
49216;BME280;45943;53.148;8.204;2023-06-14T06:12:33;101991.03;;;21.95;100.00
49216;BME280;45943;53.148;8.204;2023-06-14T06:14:59;101994.63;;;21.96;100.00
49216;BME280;45943;53.148;8.204;2023-06-14T06:17:25;102003.72;;;22.13;100.00
49216;BME280;45943;53.148;8.204;2023-06-14T06:19:52;101999.94;;;22.14;100.00
49216;BME280;45943;53.148;8.204;2023-06-14T06:22:18;102002.28;;;22.00;100.00
49216;BME280;45943;53.148;8.204;2023-06-14T06:24:44;101993.25;;;21.84;100.00
49216;BME280;45943;53.148;8.204;2023-06-14T06:27:10;101998.38;;;21.95;100.00
49216;BME280;45943;53.148;8.204;2023-06-14T06:29:36;101994.25;;;21.99;100.00
49216;BME280;45943;53.148;8.204;2023-06-14T06:32:02;101991.53;;;21.99;96.97
49216;BME280;45943;53.148;8.204;2023-06-14T06:34:28;101994.47;;;22.14;100.00
49216;BME280;45943;53.148;8.204;2023-06-14T06:36:54;101993.41;;;22.39;98.57
49216;BME280;45943;53.148;8.204;2023-06-14T06:39:20;102001.97;;;22.52;97.63
49216;BME280;45943;53.148;8.204;2023-06-14T06:41:46;101996.81;;;22.49;91.92
49216;BME280;45943;53.148;8.204;2023-06-14T06:44:12;101996.81;;;22.41;91.56
49216;BME280;45943;53.148;8.204;2023-06-14T06:46:38;102008.44;;;21.94;84.50
49216;BME280;45943;53.148;8.204;2023-06-14T06:49:06;102008.94;;;21.82;83.64
49216;BME280;45943;53.148;8.204;2023-06-14T06:51:33;102013.69;;;21.71;82.30
49216;BME280;45943;53.148;8.204;2023-06-14T06:54:00;102011.31;;;21.68;83.68
49216;BME280;45943;53.148;8.204;2023-06-14T06:56:26;102021.41;;;21.84;82.62
49216;BME280;45943;53.148;8.204;2023-06-14T06:58:52;102019.88;;;21.90;78.47
49216;BME280;45943;53.148;8.204;2023-06-14T07:01:18;102024.53;;;22.14;79.86
49216;BME280;45943;53.148;8.204;2023-06-14T07:03:45;102029.84;;;22.23;75.56
49216;BME280;45943;53.148;8.204;2023-06-14T07:06:11;102023.84;;;22.12;77.61
49216;BME280;45943;53.148;8.204;2023-06-14T07:08:37;102021.09;;;22.12;75.83
49216;BME280;45943;53.148;8.204;2023-06-14T07:11:06;102027.63;;;22.35;76.47
49216;BME280;45943;53.148;8.204;2023-06-14T07:13:32;102026.22;;;22.47;77.10
49216;BME280;45943;53.148;8.204;2023-06-14T07:15:59;102020.09;;;22.45;72.77
49216;BME280;45943;53.148;8.204;2023-06-14T07:18:28;102020.75;;;22.55;76.73
49216;BME280;45943;53.148;8.204;2023-06-14T07:20:54;102018.00;;;22.64;78.55
49216;BME280;45943;53.148;8.204;2023-06-14T07:23:20;102018.84;;;22.72;74.98
49216;BME280;45943;53.148;8.204;2023-06-14T07:25:46;102028.41;;;22.84;76.11
49216;BME280;45943;53.148;8.204;2023-06-14T07:28:12;102025.84;;;22.91;75.83
49216;BME280;45943;53.148;8.204;2023-06-14T07:30:38;102019.28;;;23.00;76.93
49216;BME280;45943;53.148;8.204;2023-06-14T07:33:04;102029.44;;;22.92;75.11
49216;BME280;45943;53.148;8.204;2023-06-14T07:35:31;102024.47;;;22.71;74.08
49216;BME280;45943;53.148;8.204;2023-06-14T07:37:57;102014.78;;;22.52;75.18
49216;BME280;45943;53.148;8.204;2023-06-14T07:40:23;102016.81;;;22.42;75.01
49216;BME280;45943;53.148;8.204;2023-06-14T07:42:49;102011.31;;;22.66;72.63
49216;BME280;45943;53.148;8.204;2023-06-14T07:45:16;102017.47;;;22.84;73.56
49216;BME280;45943;53.148;8.204;2023-06-14T07:47:42;102020.44;;;23.14;74.17
49216;BME280;45943;53.148;8.204;2023-06-14T07:50:08;102019.34;;;23.31;72.04
49216;BME280;45943;53.148;8.204;2023-06-14T07:52:35;102023.34;;;23.21;68.73
49216;BME280;45943;53.148;8.204;2023-06-14T07:55:01;102022.44;;;23.28;68.67
49216;BME280;45943;53.148;8.204;2023-06-14T07:57:27;102020.94;;;23.17;69.25
49216;BME280;45943;53.148;8.204;2023-06-14T07:59:53;102014.81;;;23.07;69.25
49216;BME280;45943;53.148;8.204;2023-06-14T08:02:19;102008.72;;;23.28;70.12
49216;BME280;45943;53.148;8.204;2023-06-14T08:04:45;102017.34;;;23.17;69.38
49216;BME280;45943;53.148;8.204;2023-06-14T08:07:12;102016.31;;;23.18;65.70
49216;BME280;45943;53.148;8.204;2023-06-14T08:09:38;102014.44;;;23.18;66.18
49216;BME280;45943;53.148;8.204;2023-06-14T08:12:05;102021.34;;;23.37;63.22
49216;BME280;45943;53.148;8.204;2023-06-14T08:14:41;102023.22;;;23.45;63.61
49216;BME280;45943;53.148;8.204;2023-06-14T08:17:08;102020.72;;;23.66;62.66
49216;BME280;45943;53.148;8.204;2023-06-14T08:19:34;102025.28;;;23.74;60.26
49216;BME280;45943;53.148;8.204;2023-06-14T08:22:00;102012.25;;;23.76;57.17
49216;BME280;45943;53.148;8.204;2023-06-14T08:24:26;102020.63;;;23.83;56.91
49216;BME280;45943;53.148;8.204;2023-06-14T08:26:53;102012.81;;;23.94;56.51
49216;BME280;45943;53.148;8.204;2023-06-14T08:29:19;102020.72;;;24.12;55.56
49216;BME280;45943;53.148;8.204;2023-06-14T08:31:46;102008.34;;;24.16;54.76
49216;BME280;45943;53.148;8.204;2023-06-14T08:34:12;102015.09;;;24.28;54.53
49216;BME280;45943;53.148;8.204;2023-06-14T08:36:38;102010.44;;;23.91;53.22
49216;BME280;45943;53.148;8.204;2023-06-14T08:39:04;102015.31;;;24.04;54.17
49216;BME280;45943;53.148;8.204;2023-06-14T08:41:31;102018.63;;;23.99;52.13
49216;BME280;45943;53.148;8.204;2023-06-14T08:43:58;102014.13;;;23.98;52.05
49216;BME280;45943;53.148;8.204;2023-06-14T08:46:25;102011.53;;;24.05;51.44
49216;BME280;45943;53.148;8.204;2023-06-14T08:48:53;102011.03;;;24.24;51.98
49216;BME280;45943;53.148;8.204;2023-06-14T08:51:22;102016.59;;;23.93;50.49
49216;BME280;45943;53.148;8.204;2023-06-14T08:53:53;102013.97;;;24.00;51.47
49216;BME280;45943;53.148;8.204;2023-06-14T08:56:24;102016.66;;;24.31;52.19
49216;BME280;45943;53.148;8.204;2023-06-14T08:58:51;102014.19;;;24.36;52.08
49216;BME280;45943;53.148;8.204;2023-06-14T09:01:19;102015.34;;;24.42;50.70
49216;BME280;45943;53.148;8.204;2023-06-14T09:03:47;102023.13;;;24.68;50.76
49216;BME280;45943;53.148;8.204;2023-06-14T09:06:14;102018.72;;;24.81;51.42
49216;BME280;45943;53.148;8.204;2023-06-14T09:08:44;102021.28;;;24.98;51.78
49216;BME280;45943;53.148;8.204;2023-06-14T09:11:12;102019.78;;;25.10;50.52
49216;BME280;45943;53.148;8.204;2023-06-14T09:13:40;102019.59;;;25.11;49.83
49216;BME280;45943;53.148;8.204;2023-06-14T09:16:07;102025.13;;;24.59;48.51
49216;BME280;45943;53.148;8.204;2023-06-14T09:18:36;102023.59;;;24.56;48.29
49216;BME280;45943;53.148;8.204;2023-06-14T09:21:06;102021.63;;;24.50;48.37
49216;BME280;45943;53.148;8.204;2023-06-14T09:23:36;102021.44;;;24.52;48.00
49216;BME280;45943;53.148;8.204;2023-06-14T09:26:06;102024.66;;;24.85;48.56
49216;BME280;45943;53.148;8.204;2023-06-14T09:28:37;102017.41;;;25.07;48.65
49216;BME280;45943;53.148;8.204;2023-06-14T09:31:10;102031.63;;;25.10;48.04
49216;BME280;45943;53.148;8.204;2023-06-14T09:33:50;102027.72;;;25.05;47.34
49216;BME280;45943;53.148;8.204;2023-06-14T09:36:23;102028.03;;;25.10;47.65
49216;BME280;45943;53.148;8.204;2023-06-14T09:41:20;102030.94;;;24.94;48.68
49216;BME280;45943;53.148;8.204;2023-06-14T09:43:46;102026.13;;;25.10;47.91
49216;BME280;45943;53.148;8.204;2023-06-14T09:46:13;102027.16;;;25.24;47.23
49216;BME280;45943;53.148;8.204;2023-06-14T09:48:39;102024.25;;;25.11;45.61
49216;BME280;45943;53.148;8.204;2023-06-14T09:51:09;102016.16;;;25.24;47.41
49216;BME280;45943;53.148;8.204;2023-06-14T09:53:38;102027.78;;;24.97;46.92
49216;BME280;45943;53.148;8.204;2023-06-14T09:56:08;102024.59;;;24.93;46.81
49216;BME280;45943;53.148;8.204;2023-06-14T09:58:37;102030.97;;;25.08;47.25
49216;BME280;45943;53.148;8.204;2023-06-14T10:01:06;102018.81;;;25.32;47.18
49216;BME280;45943;53.148;8.204;2023-06-14T10:03:34;102018.19;;;25.66;47.39
49216;BME280;45943;53.148;8.204;2023-06-14T10:06:03;102031.41;;;25.41;46.69
49216;BME280;45943;53.148;8.204;2023-06-14T10:08:34;102030.63;;;25.84;47.53
49216;BME280;45943;53.148;8.204;2023-06-14T10:11:02;102021.09;;;25.65;45.77
49216;BME280;45943;53.148;8.204;2023-06-14T10:13:28;102029.94;;;25.60;45.63
49216;BME280;45943;53.148;8.204;2023-06-14T10:16:07;102016.56;;;25.72;45.75
49216;BME280;45943;53.148;8.204;2023-06-14T10:21:26;102009.25;;;25.79;45.94
49216;BME280;45943;53.148;8.204;2023-06-14T10:23:58;102011.25;;;26.13;44.99
49216;BME280;45943;53.148;8.204;2023-06-14T10:26:29;102014.31;;;26.25;44.83
49216;BME280;45943;53.148;8.204;2023-06-14T10:29:06;102020.22;;;26.22;44.92
49216;BME280;45943;53.148;8.204;2023-06-14T10:31:40;102017.22;;;26.38;43.64
49216;BME280;45943;53.148;8.204;2023-06-14T10:34:07;102004.88;;;26.55;43.23
49216;BME280;45943;53.148;8.204;2023-06-14T10:36:33;102008.78;;;26.74;43.71
49216;BME280;45943;53.148;8.204;2023-06-14T10:41:34;102007.78;;;26.82;42.62
49216;BME280;45943;53.148;8.204;2023-06-14T10:46:40;102006.78;;;26.90;42.17
49216;BME280;45943;53.148;8.204;2023-06-14T10:49:12;102009.66;;;26.75;42.12
49216;BME280;45943;53.148;8.204;2023-06-14T10:51:38;102000.22;;;26.56;42.43
49216;BME280;45943;53.148;8.204;2023-06-14T10:54:13;102010.19;;;26.92;42.73
49216;BME280;45943;53.148;8.204;2023-06-14T10:56:49;101995.81;;;27.37;42.09
49216;BME280;45943;53.148;8.204;2023-06-14T10:59:17;102003.91;;;27.52;41.16
49216;BME280;45943;53.148;8.204;2023-06-14T11:02:09;101997.19;;;27.68;41.15
49216;BME280;45943;53.148;8.204;2023-06-14T11:04:52;101986.56;;;27.65;40.52
49216;BME280;45943;53.148;8.204;2023-06-14T11:13:06;101978.16;;;28.26;40.63
49216;BME280;45943;53.148;8.204;2023-06-14T11:15:33;101980.97;;;28.33;40.52
49216;BME280;45943;53.148;8.204;2023-06-14T11:18:04;101983.28;;;28.36;39.39
49216;BME280;45943;53.148;8.204;2023-06-14T11:20:35;101956.53;;;28.23;39.03
49216;BME280;45943;53.148;8.204;2023-06-14T11:23:02;101976.44;;;28.51;39.12
49216;BME280;45943;53.148;8.204;2023-06-14T11:25:29;101977.69;;;28.89;38.93
49216;BME280;45943;53.148;8.204;2023-06-14T11:27:55;101978.06;;;28.99;39.28
49216;BME280;45943;53.148;8.204;2023-06-14T11:30:22;101981.03;;;29.04;38.36
49216;BME280;45943;53.148;8.204;2023-06-14T11:32:49;101958.16;;;28.70;38.34
49216;BME280;45943;53.148;8.204;2023-06-14T11:35:17;101967.91;;;28.79;38.16
49216;BME280;45943;53.148;8.204;2023-06-14T11:37:44;101966.47;;;28.50;38.35
49216;BME280;45943;53.148;8.204;2023-06-14T11:40:11;101961.84;;;28.44;38.46
49216;BME280;45943;53.148;8.204;2023-06-14T11:42:39;101964.19;;;28.34;38.00
49216;BME280;45943;53.148;8.204;2023-06-14T11:45:10;101958.00;;;28.25;37.81
49216;BME280;45943;53.148;8.204;2023-06-14T11:47:38;101949.69;;;28.65;37.89
49216;BME280;45943;53.148;8.204;2023-06-14T11:50:06;101951.41;;;28.53;37.34
49216;BME280;45943;53.148;8.204;2023-06-14T11:52:36;101949.72;;;28.25;38.09
49216;BME280;45943;53.148;8.204;2023-06-14T11:55:03;101961.00;;;28.37;37.86
49216;BME280;45943;53.148;8.204;2023-06-14T11:57:33;101954.31;;;28.78;36.77
49216;BME280;45943;53.148;8.204;2023-06-14T12:00:04;101952.28;;;28.47;37.34
49216;BME280;45943;53.148;8.204;2023-06-14T12:02:40;101948.63;;;28.60;37.96
49216;BME280;45943;53.148;8.204;2023-06-14T12:05:06;101946.13;;;28.05;37.69
49216;BME280;45943;53.148;8.204;2023-06-14T12:07:38;101943.34;;;27.92;37.96
49216;BME280;45943;53.148;8.204;2023-06-14T12:10:08;101944.19;;;27.99;38.01
49216;BME280;45943;53.148;8.204;2023-06-14T12:12:37;101935.72;;;28.47;37.65
49216;BME280;45943;53.148;8.204;2023-06-14T12:15:04;101942.59;;;29.02;36.35
49216;BME280;45943;53.148;8.204;2023-06-14T12:17:33;101932.84;;;28.80;35.71
49216;BME280;45943;53.148;8.204;2023-06-14T12:20:07;101928.38;;;28.79;36.31
49216;BME280;45943;53.148;8.204;2023-06-14T12:22:51;101930.50;;;28.90;36.31
49216;BME280;45943;53.148;8.204;2023-06-14T12:25:28;101929.94;;;29.20;36.11
49216;BME280;45943;53.148;8.204;2023-06-14T12:28:09;101937.34;;;29.26;36.07
49216;BME280;45943;53.148;8.204;2023-06-14T12:30:35;101933.63;;;29.52;35.87
49216;BME280;45943;53.148;8.204;2023-06-14T12:33:03;101934.47;;;29.84;35.81
49216;BME280;45943;53.148;8.204;2023-06-14T12:35:29;101927.91;;;30.28;35.11
49216;BME280;45943;53.148;8.204;2023-06-14T12:37:55;101931.09;;;30.07;33.80
49216;BME280;45943;53.148;8.204;2023-06-14T12:40:22;101928.03;;;29.90;34.31
49216;BME280;45943;53.148;8.204;2023-06-14T12:42:48;101925.28;;;29.58;34.99
49216;BME280;45943;53.148;8.204;2023-06-14T12:45:14;101915.47;;;29.62;34.62
49216;BME280;45943;53.148;8.204;2023-06-14T12:47:40;101919.75;;;29.90;34.86
49216;BME280;45943;53.148;8.204;2023-06-14T12:50:06;101930.69;;;30.03;35.05
49216;BME280;45943;53.148;8.204;2023-06-14T12:52:33;101932.47;;;29.66;34.91
49216;BME280;45943;53.148;8.204;2023-06-14T12:55:02;101928.41;;;29.30;34.52
49216;BME280;45943;53.148;8.204;2023-06-14T12:57:29;101919.81;;;29.45;34.79
49216;BME280;45943;53.148;8.204;2023-06-14T12:59:55;101929.78;;;29.53;34.39
49216;BME280;45943;53.148;8.204;2023-06-14T13:02:21;101913.19;;;29.84;34.44
49216;BME280;45943;53.148;8.204;2023-06-14T13:04:51;101917.00;;;29.83;34.34
49216;BME280;45943;53.148;8.204;2023-06-14T13:07:17;101918.25;;;30.55;34.82
49216;BME280;45943;53.148;8.204;2023-06-14T13:09:43;101907.94;;;31.18;34.02